Time;durP1;ratioP1;P1;durP2;ratioP2;P2;SDS_P1;SDS_P2;PMS_P1;PMS_P2;Temp;Humidity;BMP_temperature;BMP_pressure;BME280_temperature;BME280_humidity;BME280_pressure;Samples;Min_cycle;Max_cycle;Signal;HPM_P1;HPM_P2
2023/07/31 00:02:13;;;;;;;0.90;0.90;;;20.60;99.90;;;;;;5148092;27;20570;-67
2023/07/31 00:04:40;;;;;;;1.00;1.00;;;20.60;99.90;;;;;;5141302;27;20206;-68
2023/07/31 00:07:08;;;;;;;0.88;0.88;;;20.60;99.90;;;;;;5153539;27;20195;-67
2023/07/31 00:09:35;;;;;;;0.88;0.88;;;20.50;99.90;;;;;;5152736;27;20183;-68
2023/07/31 00:12:02;;;;;;;0.70;0.70;;;20.50;99.90;;;;;;5148311;27;20198;-68
2023/07/31 00:14:30;;;;;;;0.70;0.70;;;20.50;99.90;;;;;;5151290;27;20206;-69
2023/07/31 00:16:58;;;;;;;1.15;0.80;;;20.50;99.90;;;;;;5158197;27;20560;-68
2023/07/31 00:19:25;;;;;;;0.77;0.77;;;20.50;99.90;;;;;;5151805;27;20258;-69
2023/07/31 00:21:52;;;;;;;0.60;0.60;;;20.50;99.90;;;;;;5153700;27;20244;-69
2023/07/31 00:24:19;;;;;;;0.70;0.70;;;20.50;99.90;;;;;;5139415;27;20228;-69
2023/07/31 00:26:46;;;;;;;0.70;0.70;;;20.50;99.90;;;;;;5149935;27;20194;-67
2023/07/31 00:29:13;;;;;;;1.27;0.88;;;20.40;99.90;;;;;;5148715;27;20201;-67
2023/07/31 00:31:41;;;;;;;0.70;0.70;;;20.40;99.90;;;;;;5149381;27;20665;-68
2023/07/31 00:34:09;;;;;;;0.85;0.85;;;20.50;99.90;;;;;;5149026;27;20190;-68
2023/07/31 00:36:36;;;;;;;0.60;0.60;;;20.40;99.90;;;;;;5151569;27;20197;-68
2023/07/31 00:39:04;;;;;;;0.50;0.50;;;20.40;99.90;;;;;;5145646;27;20267;-68
2023/07/31 00:41:31;;;;;;;0.70;0.70;;;20.40;99.90;;;;;;5146083;27;20198;-68
2023/07/31 00:43:58;;;;;;;0.80;0.80;;;20.40;99.90;;;;;;5147519;27;20207;-68
2023/07/31 00:46:25;;;;;;;0.70;0.70;;;20.40;99.90;;;;;;5145202;27;20214;-68
2023/07/31 00:48:54;;;;;;;0.70;0.70;;;20.40;99.90;;;;;;5152375;27;20218;-68
2023/07/31 00:51:22;;;;;;;0.75;0.75;;;20.30;99.90;;;;;;5147948;27;20197;-68
2023/07/31 00:53:49;;;;;;;0.82;0.77;;;20.30;99.90;;;;;;5149007;27;20194;-68
2023/07/31 00:56:17;;;;;;;0.70;0.70;;;20.20;99.90;;;;;;5151427;27;20190;-68
2023/07/31 00:58:47;;;;;;;0.60;0.60;;;20.30;99.90;;;;;;5151924;27;20214;-67
2023/07/31 01:03:53;;;;;;;0.80;0.80;;;20.20;99.90;;;;;;4819255;22;20464;-65
2023/07/31 01:06:31;;;;;;;0.57;0.57;;;20.20;99.90;;;;;;5142410;27;20186;-66
2023/07/31 01:09:04;;;;;;;0.70;0.70;;;20.20;99.90;;;;;;5131823;27;20605;-66
2023/07/31 01:11:33;;;;;;;0.70;0.70;;;20.20;99.90;;;;;;5138882;27;20637;-66
2023/07/31 01:14:01;;;;;;;0.88;0.60;;;20.20;99.90;;;;;;5149967;27;20190;-66
2023/07/31 01:16:28;;;;;;;0.60;0.60;;;20.20;99.90;;;;;;5147658;27;20202;-65
2023/07/31 01:18:55;;;;;;;0.70;0.70;;;20.20;99.90;;;;;;5149118;27;20203;-66
2023/07/31 01:21:58;;;;;;;0.50;0.50;;;20.20;99.90;;;;;;5130757;27;20563;-66
2023/07/31 01:24:36;;;;;;;0.63;0.63;;;20.20;99.90;;;;;;5127931;27;20647;-66
2023/07/31 01:27:10;;;;;;;0.77;0.77;;;20.10;99.90;;;;;;5151412;27;20758;-66
2023/07/31 01:29:39;;;;;;;2.28;1.00;;;20.20;99.90;;;;;;5150491;27;20187;-66
2023/07/31 01:32:08;;;;;;;0.90;0.90;;;20.10;99.90;;;;;;5141257;27;20686;-65
2023/07/31 01:34:37;;;;;;;0.90;0.90;;;20.10;99.90;;;;;;5131363;27;20218;-66
2023/07/31 01:37:04;;;;;;;0.70;0.70;;;20.10;99.90;;;;;;5147259;27;20247;-66
2023/07/31 01:39:32;;;;;;;0.63;0.63;;;20.10;99.90;;;;;;5125499;27;20784;-66
2023/07/31 01:41:59;;;;;;;0.90;0.90;;;20.10;99.90;;;;;;5151186;27;20198;-65
2023/07/31 01:44:27;;;;;;;0.60;0.60;;;20.00;99.90;;;;;;5131239;27;20560;-66
2023/07/31 01:46:54;;;;;;;0.73;0.70;;;20.10;99.90;;;;;;5141781;27;20198;-66
2023/07/31 01:49:21;;;;;;;0.70;0.70;;;20.00;99.90;;;;;;5132221;27;20469;-65
2023/07/31 01:51:48;;;;;;;0.70;0.70;;;20.00;99.90;;;;;;5131972;27;20190;-66
2023/07/31 01:54:15;;;;;;;1.10;0.82;;;19.90;99.90;;;;;;5144809;27;20195;-66
2023/07/31 01:56:42;;;;;;;0.98;0.98;;;19.90;99.90;;;;;;5150907;27;20194;-66
2023/07/31 01:59:10;;;;;;;0.82;0.82;;;19.90;99.90;;;;;;5129734;27;20210;-66
2023/07/31 02:01:38;;;;;;;0.90;0.90;;;19.90;99.90;;;;;;5145995;27;20323;-66
2023/07/31 02:04:05;;;;;;;0.80;0.80;;;19.90;99.90;;;;;;5146312;27;20258;-66
2023/07/31 02:06:32;;;;;;;0.82;0.82;;;19.90;99.90;;;;;;5146613;27;20283;-66
2023/07/31 02:08:59;;;;;;;1.10;1.00;;;19.90;99.90;;;;;;5129222;27;20199;-66
2023/07/31 02:11:26;;;;;;;1.10;1.00;;;19.80;99.90;;;;;;5140700;27;20206;-65
2023/07/31 02:13:53;;;;;;;1.15;0.93;;;19.80;99.90;;;;;;5147183;27;20294;-66
2023/07/31 02:16:20;;;;;;;1.30;1.20;;;19.80;99.90;;;;;;5143982;27;20243;-66
2023/07/31 02:18:49;;;;;;;1.60;1.50;;;19.80;99.90;;;;;;5130627;27;20587;-66
2023/07/31 02:21:16;;;;;;;1.25;1.25;;;19.80;99.90;;;;;;5142345;27;20262;-66
2023/07/31 02:23:43;;;;;;;1.02;1.02;;;19.70;99.90;;;;;;5137528;27;20199;-66
2023/07/31 02:26:10;;;;;;;0.80;0.80;;;19.70;99.90;;;;;;5149229;27;20675;-66
2023/07/31 02:28:37;;;;;;;1.05;1.05;;;19.70;99.90;;;;;;5145728;27;20243;-66
2023/07/31 02:31:04;;;;;;;1.10;1.10;;;19.70;99.90;;;;;;5129464;27;20241;-67
2023/07/31 02:33:31;;;;;;;1.10;1.10;;;19.60;99.90;;;;;;5148834;27;20693;-66
2023/07/31 02:36:00;;;;;;;1.00;1.00;;;19.60;99.90;;;;;;5142683;27;20582;-67
2023/07/31 02:38:28;;;;;;;0.98;0.98;;;19.60;99.90;;;;;;5144223;27;20568;-67
2023/07/31 02:40:54;;;;;;;1.08;1.02;;;19.60;99.90;;;;;;5149162;27;20621;-66
2023/07/31 02:43:21;;;;;;;0.95;0.95;;;19.60;99.90;;;;;;5138896;27;20231;-67
2023/07/31 02:45:52;;;;;;;1.02;1.02;;;19.60;99.90;;;;;;5129270;27;20206;-66
2023/07/31 02:48:19;;;;;;;1.92;1.20;;;19.50;99.90;;;;;;5149332;27;20210;-67
2023/07/31 02:50:48;;;;;;;1.10;1.10;;;19.50;99.90;;;;;;5143821;27;20688;-66
2023/07/31 02:53:17;;;;;;;0.98;0.98;;;19.50;99.90;;;;;;5150015;27;20239;-66
2023/07/31 02:55:44;;;;;;;1.17;0.90;;;19.40;99.90;;;;;;5149965;27;20532;-66
2023/07/31 02:58:11;;;;;;;0.80;0.77;;;19.40;99.90;;;;;;5143218;27;20186;-66
2023/07/31 03:00:43;;;;;;;0.80;0.80;;;19.40;99.90;;;;;;5130188;27;20210;-67
2023/07/31 03:03:10;;;;;;;0.80;0.80;;;19.30;99.90;;;;;;5149031;27;20305;-67
2023/07/31 03:05:38;;;;;;;0.80;0.80;;;19.30;99.90;;;;;;5144711;27;20525;-66
2023/07/31 03:08:05;;;;;;;1.13;0.90;;;19.30;99.90;;;;;;5150137;27;20650;-66
2023/07/31 03:10:34;;;;;;;0.82;0.70;;;19.30;99.90;;;;;;5143893;27;20199;-66
2023/07/31 03:13:01;;;;;;;3.13;1.00;;;19.30;99.90;;;;;;5144752;27;20199;-66
2023/07/31 03:15:28;;;;;;;1.00;0.95;;;19.20;99.90;;;;;;5145556;27;20597;-66
2023/07/31 03:17:55;;;;;;;0.90;0.88;;;19.20;99.90;;;;;;5142294;27;20223;-67
2023/07/31 03:20:22;;;;;;;1.30;1.10;;;19.20;99.90;;;;;;5144802;27;20708;-67
2023/07/31 03:22:49;;;;;;;1.00;0.90;;;19.20;99.90;;;;;;5135007;27;20574;-67
2023/07/31 03:25:16;;;;;;;1.25;1.00;;;19.20;99.90;;;;;;5130908;27;20206;-66
2023/07/31 03:27:44;;;;;;;0.82;0.70;;;19.20;99.90;;;;;;5148647;27;20209;-66
2023/07/31 03:30:12;;;;;;;1.27;1.25;;;19.10;99.90;;;;;;5153338;27;20266;-67
2023/07/31 03:32:39;;;;;;;1.02;1.02;;;19.10;99.90;;;;;;5150261;27;20575;-66
2023/07/31 03:35:06;;;;;;;1.00;1.00;;;19.10;99.90;;;;;;5130397;27;20199;-66
2023/07/31 03:37:34;;;;;;;0.98;0.98;;;19.10;99.90;;;;;;5153335;27;20225;-66
2023/07/31 03:40:01;;;;;;;1.48;1.13;;;19.10;99.90;;;;;;5132975;27;20301;-65
2023/07/31 03:42:28;;;;;;;1.40;0.90;;;19.20;99.90;;;;;;5154425;27;20891;-66
2023/07/31 03:44:56;;;;;;;0.70;0.70;;;19.20;99.90;;;;;;5152965;27;20240;-65
2023/07/31 03:47:23;;;;;;;1.42;1.00;;;19.20;99.90;;;;;;5148048;27;20231;-66
2023/07/31 03:49:50;;;;;;;0.95;0.80;;;19.20;99.90;;;;;;5149433;27;20217;-65
2023/07/31 03:52:17;;;;;;;1.20;1.10;;;19.20;99.90;;;;;;5154402;27;20198;-66
2023/07/31 03:54:45;;;;;;;1.17;1.08;;;19.20;99.90;;;;;;5152907;27;20221;-65
2023/07/31 03:57:13;;;;;;;1.75;1.00;;;19.10;99.90;;;;;;5130487;27;20654;-66
2023/07/31 03:59:40;;;;;;;1.35;1.00;;;19.10;99.90;;;;;;5148814;27;20293;-65
2023/07/31 04:02:08;;;;;;;1.10;1.00;;;19.10;99.90;;;;;;5150313;27;20259;-66
2023/07/31 04:04:35;;;;;;;0.95;0.95;;;19.10;99.90;;;;;;5147406;27;20194;-66
2023/07/31 04:07:02;;;;;;;2.25;1.00;;;19.10;99.90;;;;;;5134436;27;20206;-66
2023/07/31 04:09:29;;;;;;;0.88;0.88;;;19.10;99.90;;;;;;5148993;27;20367;-66
2023/07/31 04:11:56;;;;;;;1.10;0.90;;;19.10;99.90;;;;;;5143834;27;20262;-66
2023/07/31 04:14:24;;;;;;;1.50;1.40;;;19.10;99.90;;;;;;5132725;27;20203;-66
2023/07/31 04:16:52;;;;;;;1.70;1.02;;;19.10;99.90;;;;;;5148088;27;20194;-66
2023/07/31 04:19:20;;;;;;;0.95;0.95;;;19.10;99.90;;;;;;5152607;27;20259;-66
2023/07/31 04:21:47;;;;;;;0.80;0.80;;;19.10;99.90;;;;;;5151322;27;20663;-66
2023/07/31 04:24:14;;;;;;;0.82;0.82;;;19.10;99.90;;;;;;5146900;27;20633;-66
2023/07/31 04:26:41;;;;;;;0.70;0.70;;;19.10;99.90;;;;;;5150502;27;20269;-66
2023/07/31 04:29:08;;;;;;;1.02;1.02;;;19.20;99.90;;;;;;5151141;27;20199;-65
2023/07/31 04:31:35;;;;;;;0.88;0.88;;;19.20;99.90;;;;;;5148084;27;20283;-66
2023/07/31 04:34:02;;;;;;;1.13;0.98;;;19.20;99.90;;;;;;5145228;27;20194;-66
2023/07/31 04:36:31;;;;;;;1.00;1.00;;;19.20;99.90;;;;;;5150799;27;20664;-66
2023/07/31 04:38:58;;;;;;;1.73;1.00;;;19.10;99.90;;;;;;5134572;27;20246;-65
2023/07/31 04:41:25;;;;;;;1.15;1.02;;;19.10;99.90;;;;;;5131217;27;20199;-66
2023/07/31 04:43:52;;;;;;;1.20;0.90;;;19.20;99.90;;;;;;5152884;27;20313;-66
2023/07/31 04:46:19;;;;;;;1.73;1.00;;;19.20;99.90;;;;;;5150835;27;20218;-66
2023/07/31 04:48:46;;;;;;;1.48;1.33;;;19.20;99.90;;;;;;5147965;27;20259;-66
2023/07/31 04:51:13;;;;;;;1.20;1.10;;;19.20;99.90;;;;;;5152410;27;20250;-66
2023/07/31 04:53:42;;;;;;;1.48;1.10;;;19.20;99.90;;;;;;5149669;27;20788;-66
2023/07/31 04:56:09;;;;;;;0.80;0.80;;;19.30;99.90;;;;;;5148862;27;20720;-66
2023/07/31 04:58:36;;;;;;;0.90;0.90;;;19.20;99.90;;;;;;5152418;27;20195;-66
2023/07/31 05:01:03;;;;;;;2.97;0.95;;;19.20;99.90;;;;;;5143773;27;20206;-65
2023/07/31 05:03:30;;;;;;;1.10;1.00;;;19.30;99.90;;;;;;5145549;27;20309;-66
2023/07/31 05:05:57;;;;;;;1.58;1.08;;;19.30;99.90;;;;;;5151310;27;20194;-65
2023/07/31 05:08:25;;;;;;;0.88;0.88;;;19.40;99.90;;;;;;5147344;27;20219;-65
2023/07/31 05:10:53;;;;;;;0.85;0.85;;;19.40;99.90;;;;;;5140952;27;20205;-66
2023/07/31 05:13:20;;;;;;;2.90;0.90;;;19.40;99.90;;;;;;5147875;27;20281;-66
2023/07/31 05:15:49;;;;;;;1.23;1.08;;;19.40;99.90;;;;;;5145257;27;20209;-66
2023/07/31 05:18:16;;;;;;;4.50;1.33;;;19.40;99.90;;;;;;5139362;27;20198;-66
2023/07/31 05:20:43;;;;;;;1.35;0.90;;;19.50;99.90;;;;;;5150756;27;20242;-66
2023/07/31 05:23:10;;;;;;;1.20;1.10;;;19.50;99.90;;;;;;5148162;27;20190;-66
2023/07/31 05:25:37;;;;;;;2.05;1.17;;;19.50;99.90;;;;;;5151915;27;20828;-65
2023/07/31 05:28:05;;;;;;;1.17;0.90;;;19.50;99.90;;;;;;5152238;27;20759;-66
2023/07/31 05:30:32;;;;;;;3.78;1.33;;;19.60;99.90;;;;;;5145044;27;20660;-66
2023/07/31 05:32:59;;;;;;;2.17;1.40;;;19.60;99.90;;;;;;5131392;27;20575;-66
2023/07/31 05:35:26;;;;;;;1.10;1.00;;;19.60;99.90;;;;;;5151930;27;20199;-66
2023/07/31 05:37:53;;;;;;;1.52;1.15;;;19.60;99.90;;;;;;5145945;27;20222;-66
2023/07/31 05:40:20;;;;;;;1.65;1.15;;;19.60;99.90;;;;;;5150851;27;20203;-66
2023/07/31 05:42:47;;;;;;;1.17;1.05;;;19.60;99.90;;;;;;5133459;27;20245;-66
2023/07/31 05:45:16;;;;;;;1.25;0.77;;;19.60;99.90;;;;;;5129114;27;20255;-66
2023/07/31 05:47:43;;;;;;;2.75;0.93;;;19.60;99.90;;;;;;5132196;27;20198;-66
2023/07/31 05:50:10;;;;;;;1.15;1.00;;;19.60;99.90;;;;;;5149330;27;20187;-66
2023/07/31 05:52:37;;;;;;;1.50;1.13;;;19.60;99.90;;;;;;5147065;27;20267;-66
2023/07/31 05:55:05;;;;;;;2.17;1.20;;;19.60;99.90;;;;;;5125842;27;20209;-66
2023/07/31 05:57:32;;;;;;;1.45;1.08;;;19.70;99.90;;;;;;5150000;27;20202;-66
2023/07/31 05:59:59;;;;;;;1.75;1.27;;;19.70;99.90;;;;;;5142371;27;20198;-66
2023/07/31 06:02:27;;;;;;;1.17;1.10;;;19.70;99.90;;;;;;5149963;27;20227;-66
2023/07/31 06:04:54;;;;;;;2.00;1.23;;;19.80;99.90;;;;;;5150137;27;20240;-66
2023/07/31 06:07:21;;;;;;;0.80;0.80;;;19.80;99.90;;;;;;5144472;27;20267;-66
2023/07/31 06:09:49;;;;;;;2.58;1.05;;;19.80;99.90;;;;;;5142042;27;20265;-63
2023/07/31 06:12:18;;;;;;;2.58;1.25;;;19.80;99.90;;;;;;5138227;27;20664;-63
2023/07/31 06:14:45;;;;;;;1.30;1.20;;;19.80;99.90;;;;;;5140879;27;20216;-63
2023/07/31 06:17:12;;;;;;;3.58;1.17;;;19.80;99.90;;;;;;5146156;27;20230;-63
2023/07/31 06:19:41;;;;;;;0.90;0.90;;;19.80;99.90;;;;;;5146856;27;20190;-64
2023/07/31 06:22:08;;;;;;;1.48;1.20;;;19.80;99.90;;;;;;5125862;27;20286;-63
2023/07/31 06:24:35;;;;;;;1.10;0.80;;;19.90;99.90;;;;;;5130217;27;20194;-63
2023/07/31 06:27:03;;;;;;;1.98;1.10;;;19.90;99.90;;;;;;5130210;27;20258;-63
2023/07/31 06:29:30;;;;;;;3.17;1.20;;;20.00;99.90;;;;;;5140412;27;20209;-63
2023/07/31 06:31:57;;;;;;;1.33;1.10;;;19.90;99.90;;;;;;5147323;27;20212;-63
2023/07/31 06:34:25;;;;;;;1.95;1.00;;;20.00;99.90;;;;;;5142716;27;20203;-63
2023/07/31 06:36:53;;;;;;;1.35;1.20;;;20.00;99.90;;;;;;5136000;27;20264;-63
2023/07/31 06:39:20;;;;;;;4.15;1.27;;;20.00;99.90;;;;;;5148240;27;20494;-63
2023/07/31 06:41:47;;;;;;;2.20;1.13;;;20.00;99.90;;;;;;5149166;27;20261;-63
2023/07/31 06:44:15;;;;;;;2.42;1.27;;;20.00;99.90;;;;;;5122297;27;20213;-63
2023/07/31 06:46:43;;;;;;;1.00;0.90;;;20.00;99.90;;;;;;5141932;27;20906;-63
2023/07/31 06:49:10;;;;;;;3.10;1.27;;;20.10;99.90;;;;;;5130061;27;20305;-63
2023/07/31 06:51:38;;;;;;;3.38;1.33;;;20.20;99.90;;;;;;5143806;27;20561;-63
2023/07/31 06:54:06;;;;;;;3.53;1.35;;;20.30;99.90;;;;;;5147343;27;20579;-63
2023/07/31 06:56:33;;;;;;;3.95;1.13;;;20.30;99.90;;;;;;5148873;27;20359;-62
2023/07/31 06:59:00;;;;;;;1.85;1.00;;;20.30;99.90;;;;;;5144333;27;20202;-62
2023/07/31 07:01:28;;;;;;;1.42;1.15;;;20.30;99.90;;;;;;5144832;27;20233;-63
2023/07/31 07:03:55;;;;;;;0.80;0.80;;;20.40;99.90;;;;;;5146852;27;20226;-62
2023/07/31 07:06:23;;;;;;;1.20;1.10;;;20.50;99.90;;;;;;5144009;27;20257;-63
2023/07/31 07:08:50;;;;;;;1.75;1.13;;;20.50;99.90;;;;;;5145931;27;20219;-62
2023/07/31 07:11:19;;;;;;;2.20;1.02;;;20.60;99.90;;;;;;5147844;27;20197;-63
2023/07/31 07:13:46;;;;;;;2.25;1.00;;;20.70;99.90;;;;;;5141585;27;20202;-62
2023/07/31 07:16:13;;;;;;;3.88;1.20;;;20.80;99.90;;;;;;5142630;27;20248;-63
2023/07/31 07:18:40;;;;;;;0.75;0.75;;;20.80;99.90;;;;;;5144735;27;20887;-63
2023/07/31 07:21:08;;;;;;;7.05;1.42;;;20.90;99.90;;;;;;5139510;27;20648;-63
2023/07/31 07:23:35;;;;;;;1.30;0.95;;;20.90;99.90;;;;;;5140990;27;20215;-63
2023/07/31 07:26:02;;;;;;;2.90;1.25;;;20.90;99.90;;;;;;5143003;27;20198;-63
2023/07/31 07:28:30;;;;;;;1.05;0.90;;;21.00;99.90;;;;;;5125239;27;20194;-62
2023/07/31 07:30:58;;;;;;;3.80;1.30;;;21.00;99.90;;;;;;5145218;27;20577;-63
2023/07/31 07:33:25;;;;;;;1.90;1.00;;;21.10;99.90;;;;;;5147343;27;20195;-63
2023/07/31 07:35:52;;;;;;;1.20;0.98;;;21.10;99.90;;;;;;5141179;27;20664;-63
2023/07/31 07:38:20;;;;;;;1.33;0.90;;;21.20;99.90;;;;;;5147755;27;20290;-62
2023/07/31 07:40:50;;;;;;;2.55;1.00;;;21.20;99.90;;;;;;5147464;27;20214;-63
2023/07/31 07:43:17;;;;;;;0.77;0.77;;;21.30;99.90;;;;;;5137212;27;20194;-63
2023/07/31 07:45:45;;;;;;;0.95;0.75;;;21.40;99.90;;;;;;5144967;27;20198;-63
2023/07/31 07:48:12;;;;;;;0.70;0.70;;;21.40;99.90;;;;;;5147943;27;20226;-63
2023/07/31 07:50:40;;;;;;;1.70;1.05;;;21.50;99.90;;;;;;5138107;27;20202;-63
2023/07/31 07:53:07;;;;;;;1.30;0.90;;;21.60;99.90;;;;;;5140519;27;20247;-63
2023/07/31 07:55:34;;;;;;;2.85;1.13;;;21.70;99.90;;;;;;5141337;27;20685;-63
2023/07/31 07:58:01;;;;;;;1.27;1.17;;;21.80;99.90;;;;;;5142413;27;20186;-63
2023/07/31 08:00:28;;;;;;;1.42;0.90;;;21.80;99.90;;;;;;5145725;27;20242;-63
2023/07/31 08:02:58;;;;;;;2.40;1.00;;;21.90;99.00;;;;;;5142152;27;20268;-63
2023/07/31 08:05:25;;;;;;;1.02;1.02;;;21.90;98.70;;;;;;5115698;27;20225;-63
2023/07/31 08:07:52;;;;;;;0.98;0.88;;;21.90;98.80;;;;;;5150376;27;20198;-63
2023/07/31 08:10:19;;;;;;;1.98;1.10;;;22.00;98.80;;;;;;5142890;27;20587;-63
2023/07/31 08:12:46;;;;;;;1.98;1.15;;;21.90;98.60;;;;;;5138395;27;20198;-63
2023/07/31 08:15:13;;;;;;;1.52;1.00;;;22.00;98.70;;;;;;5150510;27;20625;-62
2023/07/31 08:17:40;;;;;;;0.90;0.90;;;22.00;98.70;;;;;;5148285;27;20680;-63
2023/07/31 08:20:11;;;;;;;0.80;0.80;;;22.00;98.40;;;;;;5146221;27;20281;-63
2023/07/31 08:22:38;;;;;;;1.70;0.80;;;22.00;98.20;;;;;;5148358;27;20214;-64
2023/07/31 08:25:06;;;;;;;2.63;0.93;;;22.00;97.90;;;;;;5148897;27;20219;-64
2023/07/31 08:27:33;;;;;;;1.20;1.10;;;22.00;97.60;;;;;;5127571;27;20219;-64
2023/07/31 08:30:00;;;;;;;2.08;0.93;;;22.00;96.90;;;;;;5149827;27;20673;-64
2023/07/31 08:32:27;;;;;;;1.05;0.80;;;22.00;96.70;;;;;;5150083;27;20218;-64
2023/07/31 08:34:54;;;;;;;0.88;0.85;;;22.10;96.70;;;;;;5140806;27;20197;-64
2023/07/31 08:37:22;;;;;;;2.00;0.82;;;22.10;96.30;;;;;;5150652;27;20193;-64
2023/07/31 08:39:49;;;;;;;0.75;0.73;;;22.20;96.50;;;;;;5145330;27;20186;-64
2023/07/31 08:42:16;;;;;;;1.20;0.98;;;22.30;96.30;;;;;;5144424;27;20211;-64
2023/07/31 08:44:44;;;;;;;2.35;1.17;;;22.40;96.30;;;;;;5149731;27;20191;-64
2023/07/31 08:47:12;;;;;;;2.40;0.95;;;22.40;96.10;;;;;;5147748;27;20308;-64
2023/07/31 08:49:40;;;;;;;1.27;0.90;;;22.40;95.00;;;;;;5146714;27;20273;-64
2023/07/31 08:52:08;;;;;;;1.13;0.90;;;22.40;94.40;;;;;;5145682;27;20186;-64
2023/07/31 08:54:36;;;;;;;1.00;0.90;;;22.40;94.50;;;;;;5129177;27;20271;-64
2023/07/31 08:57:05;;;;;;;0.80;0.80;;;22.40;94.60;;;;;;5146184;27;20198;-64
2023/07/31 08:59:35;;;;;;;1.33;0.82;;;22.40;94.90;;;;;;5148613;27;20271;-64
2023/07/31 09:02:06;;;;;;;0.93;0.88;;;22.50;94.70;;;;;;5142536;27;20213;-64
2023/07/31 09:04:33;;;;;;;0.90;0.90;;;22.60;94.40;;;;;;5139730;27;20545;-64
2023/07/31 09:07:03;;;;;;;0.70;0.70;;;22.70;94.40;;;;;;5123177;27;20592;-64
2023/07/31 09:09:30;;;;;;;0.95;0.80;;;22.80;93.50;;;;;;5144093;27;20200;-64
2023/07/31 09:11:59;;;;;;;1.02;0.80;;;22.90;93.30;;;;;;5146486;27;20198;-64
2023/07/31 09:14:27;;;;;;;0.80;0.80;;;22.90;93.00;;;;;;5129538;27;21180;-64
2023/07/31 09:16:55;;;;;;;2.42;1.05;;;22.90;92.80;;;;;;5138031;27;20194;-64
2023/07/31 09:19:30;;;;;;;0.70;0.70;;;22.90;93.20;;;;;;5146018;27;20195;-64
2023/07/31 09:21:57;;;;;;;1.60;1.10;;;22.90;92.80;;;;;;5143626;27;20620;-63
2023/07/31 09:24:28;;;;;;;0.77;0.77;;;23.00;92.60;;;;;;5140150;27;20197;-64
2023/07/31 09:26:56;;;;;;;0.70;0.70;;;23.00;92.60;;;;;;5149822;27;20198;-64
2023/07/31 09:29:26;;;;;;;0.90;0.90;;;23.10;92.50;;;;;;5149233;27;20522;-64
2023/07/31 09:31:54;;;;;;;1.23;1.10;;;23.20;92.20;;;;;;5141427;27;20201;-64
2023/07/31 09:34:21;;;;;;;0.75;0.75;;;23.30;91.30;;;;;;5147562;27;20285;-64
2023/07/31 09:36:50;;;;;;;1.10;1.00;;;23.30;91.10;;;;;;5149120;27;20194;-64
2023/07/31 09:39:19;;;;;;;1.08;0.80;;;23.40;91.20;;;;;;5145072;27;20805;-64
2023/07/31 09:41:49;;;;;;;0.90;0.90;;;23.40;91.30;;;;;;5148816;27;20300;-64
2023/07/31 09:44:16;;;;;;;1.38;0.82;;;23.50;91.40;;;;;;5137389;27;20267;-64
2023/07/31 09:46:44;;;;;;;1.00;0.90;;;23.60;90.90;;;;;;5138041;27;20224;-64
2023/07/31 09:49:13;;;;;;;0.80;0.80;;;23.70;90.80;;;;;;5147454;27;20239;-64
2023/07/31 09:51:41;;;;;;;0.80;0.75;;;23.80;90.60;;;;;;5141412;27;20618;-64
2023/07/31 09:54:12;;;;;;;1.83;1.30;;;23.80;90.40;;;;;;5143101;27;20531;-64
2023/07/31 09:56:45;;;;;;;2.75;1.00;;;23.80;90.00;;;;;;5148354;27;20215;-64
2023/07/31 09:59:14;;;;;;;1.73;1.05;;;23.90;89.60;;;;;;5142958;27;20199;-64
2023/07/31 10:01:44;;;;;;;1.08;0.98;;;24.00;90.00;;;;;;5140567;27;20310;-64
2023/07/31 10:04:12;;;;;;;1.00;1.00;;;24.10;90.20;;;;;;5141962;27;20233;-64
2023/07/31 10:06:40;;;;;;;0.65;0.65;;;24.20;90.20;;;;;;5138110;27;20277;-64
2023/07/31 10:09:09;;;;;;;0.77;0.70;;;24.20;90.10;;;;;;5146829;27;20198;-64
2023/07/31 10:11:41;;;;;;;2.25;0.98;;;24.30;89.20;;;;;;5149775;27;20206;-64
2023/07/31 10:14:09;;;;;;;1.98;1.05;;;24.40;88.00;;;;;;5126433;27;20202;-64
2023/07/31 10:16:40;;;;;;;1.00;0.90;;;24.30;87.30;;;;;;5143275;27;20191;-64
2023/07/31 10:19:09;;;;;;;1.00;0.90;;;24.30;85.90;;;;;;5149155;27;20194;-64
2023/07/31 10:21:38;;;;;;;4.00;1.00;;;24.40;86.00;;;;;;5140349;27;20343;-64
2023/07/31 10:24:06;;;;;;;1.42;1.00;;;24.50;85.60;;;;;;5126088;27;20206;-64
2023/07/31 10:26:34;;;;;;;0.80;0.80;;;24.60;84.50;;;;;;5144856;27;20273;-64
2023/07/31 10:29:01;;;;;;;0.85;0.80;;;24.60;84.70;;;;;;5144040;27;20191;-64
2023/07/31 10:31:28;;;;;;;1.45;1.10;;;24.70;84.60;;;;;;5127355;27;20320;-64
2023/07/31 10:33:57;;;;;;;2.33;0.85;;;24.70;83.90;;;;;;5149037;27;20202;-64
2023/07/31 10:36:25;;;;;;;1.27;1.17;;;24.60;83.40;;;;;;5141668;27;20279;-64
2023/07/31 10:38:52;;;;;;;1.13;1.02;;;24.50;83.60;;;;;;5149208;27;20191;-64
2023/07/31 10:41:19;;;;;;;3.00;1.10;;;24.50;84.30;;;;;;5147086;27;20221;-64
2023/07/31 10:43:48;;;;;;;1.25;0.90;;;24.50;83.80;;;;;;5141446;27;20222;-64
2023/07/31 10:46:15;;;;;;;1.80;1.05;;;24.40;82.30;;;;;;5118458;27;20248;-64
2023/07/31 10:48:43;;;;;;;1.20;1.10;;;24.40;81.50;;;;;;5147574;27;20190;-64
2023/07/31 10:51:12;;;;;;;1.15;0.85;;;24.40;82.30;;;;;;5137561;27;20195;-64
2023/07/31 10:53:41;;;;;;;0.70;0.70;;;24.30;82.30;;;;;;5139953;27;20187;-64
2023/07/31 10:56:12;;;;;;;0.95;0.95;;;24.20;82.10;;;;;;5144100;27;20198;-64
2023/07/31 10:58:39;;;;;;;3.00;1.10;;;24.20;81.90;;;;;;5140828;27;20205;-64
2023/07/31 11:01:07;;;;;;;0.95;0.95;;;24.20;82.40;;;;;;5145256;27;20270;-64
2023/07/31 11:03:44;;;;;;;1.52;1.00;;;24.20;82.80;;;;;;5142245;27;20694;-64
2023/07/31 11:06:12;;;;;;;0.90;0.80;;;24.10;82.40;;;;;;5125372;27;20197;-65
2023/07/31 11:08:45;;;;;;;12.73;1.50;;;24.10;82.10;;;;;;5148689;27;20241;-64
2023/07/31 11:11:14;;;;;;;1.33;1.08;;;24.10;81.30;;;;;;5122954;27;20199;-65
2023/07/31 11:13:44;;;;;;;1.10;0.77;;;24.10;81.30;;;;;;5146928;27;20190;-64
2023/07/31 11:16:12;;;;;;;2.60;0.90;;;24.00;81.30;;;;;;5142794;27;20199;-64
2023/07/31 11:18:41;;;;;;;1.75;0.93;;;24.10;82.20;;;;;;5140865;27;20274;-64
2023/07/31 11:21:08;;;;;;;1.15;1.08;;;24.00;82.80;;;;;;5144884;27;20197;-64
2023/07/31 11:23:38;;;;;;;0.70;0.70;;;24.00;82.70;;;;;;5143626;27;20198;-64
2023/07/31 11:26:07;;;;;;;0.70;0.70;;;23.90;83.40;;;;;;5142446;27;20199;-64
2023/07/31 11:28:36;;;;;;;0.80;0.80;;;23.90;83.60;;;;;;5147996;27;20589;-64
2023/07/31 11:31:03;;;;;;;1.05;1.05;;;23.90;84.10;;;;;;5145022;27;20198;-65
2023/07/31 11:33:31;;;;;;;1.38;1.20;;;23.90;83.90;;;;;;5138693;27;20186;-64
2023/07/31 11:35:58;;;;;;;0.75;0.75;;;23.80;83.20;;;;;;5146774;27;20201;-65
2023/07/31 11:38:28;;;;;;;2.97;1.20;;;23.80;83.80;;;;;;5146385;27;20199;-65
2023/07/31 11:40:57;;;;;;;1.05;0.90;;;23.70;84.90;;;;;;5140848;27;20194;-64
2023/07/31 11:43:26;;;;;;;1.17;1.00;;;23.70;85.30;;;;;;5142306;27;20407;-65
2023/07/31 11:45:56;;;;;;;1.65;1.00;;;23.60;86.20;;;;;;5151572;27;20194;-64
2023/07/31 11:48:24;;;;;;;1.15;1.00;;;23.60;86.60;;;;;;5146375;27;20669;-65
2023/07/31 11:50:52;;;;;;;1.58;1.17;;;23.60;86.60;;;;;;5148776;27;20342;-65
2023/07/31 11:53:25;;;;;;;4.10;1.40;;;23.60;86.90;;;;;;5149973;27;20183;-65
2023/07/31 11:55:53;;;;;;;2.63;1.08;;;23.50;86.80;;;;;;5146119;27;20194;-65
2023/07/31 11:58:20;;;;;;;2.92;1.23;;;23.50;86.00;;;;;;5150431;27;20195;-65
2023/07/31 12:00:50;;;;;;;1.65;1.17;;;23.50;86.30;;;;;;5149837;27;20197;-65
2023/07/31 12:03:17;;;;;;;0.80;0.80;;;23.50;86.70;;;;;;5141551;27;20230;-65
2023/07/31 12:05:44;;;;;;;1.70;1.00;;;23.50;87.00;;;;;;5152720;27;20274;-66
2023/07/31 12:08:12;;;;;;;1.05;0.95;;;23.50;87.00;;;;;;5150859;27;20221;-65
2023/07/31 12:10:40;;;;;;;4.53;1.00;;;23.50;87.10;;;;;;5144541;27;20524;-65
2023/07/31 12:13:10;;;;;;;3.03;1.23;;;23.50;87.50;;;;;;5150677;27;20205;-65
2023/07/31 12:15:42;;;;;;;1.00;1.00;;;23.50;87.70;;;;;;5151075;27;20250;-65
2023/07/31 12:18:13;;;;;;;2.25;1.20;;;23.40;87.50;;;;;;5146577;27;20205;-64
2023/07/31 12:20:45;;;;;;;2.45;1.30;;;23.40;88.60;;;;;;5144839;27;20191;-65
2023/07/31 12:23:17;;;;;;;1.00;1.00;;;23.40;88.90;;;;;;5143585;27;20272;-65
2023/07/31 12:25:44;;;;;;;1.50;1.23;;;23.30;89.30;;;;;;5147805;27;20203;-66
2023/07/31 12:28:14;;;;;;;0.93;0.90;;;23.30;89.30;;;;;;5150632;27;20619;-65
2023/07/31 12:30:42;;;;;;;2.53;1.20;;;23.30;89.30;;;;;;5145392;27;20232;-65
2023/07/31 12:33:16;;;;;;;1.80;1.27;;;23.30;89.50;;;;;;5146801;27;20195;-65
2023/07/31 12:35:45;;;;;;;1.00;1.00;;;23.20;90.10;;;;;;5151960;27;20692;-65
2023/07/31 12:38:13;;;;;;;1.10;1.00;;;23.20;90.20;;;;;;5145466;27;20920;-65
2023/07/31 12:40:41;;;;;;;1.88;1.20;;;23.20;90.50;;;;;;5151247;27;20200;-66
2023/07/31 12:43:09;;;;;;;3.55;1.00;;;23.10;90.60;;;;;;5141353;27;20274;-65
2023/07/31 12:45:36;;;;;;;4.22;1.20;;;23.10;90.70;;;;;;5144729;27;20186;-65
2023/07/31 12:48:04;;;;;;;1.02;1.02;;;23.10;90.90;;;;;;5148168;27;20195;-65
2023/07/31 12:50:32;;;;;;;0.98;0.98;;;23.00;90.80;;;;;;5150063;27;20198;-65
2023/07/31 12:52:59;;;;;;;1.50;1.38;;;23.00;90.90;;;;;;5142680;27;20191;-65
2023/07/31 12:55:27;;;;;;;2.05;1.30;;;23.00;91.10;;;;;;5144361;27;20705;-65